Time;durP1;ratioP1;P1;durP2;ratioP2;P2;SDS_P1;SDS_P2;PMS_P1;PMS_P2;Temp;Humidity;BMP_temperature;BMP_pressure;BME280_temperature;BME280_humidity;BME280_pressure;Samples;Min_cycle;Max_cycle;Signal;HPM_P1;HPM_P2
2023/08/27 00:01:37;;;;;;;15.80;15.00;;;19.00;99.90;;;;;;5053383;28;20835;-88
2023/08/27 00:04:44;;;;;;;16.20;15.47;;;19.00;99.90;;;;;;5052724;28;20483;-90
2023/08/27 00:07:25;;;;;;;16.33;15.43;;;19.00;99.90;;;;;;5052087;28;20465;-90
2023/08/27 00:10:02;;;;;;;17.13;16.03;;;19.00;1.00;;;;;;5053041;28;20482;-91
2023/08/27 00:12:39;;;;;;;17.10;16.30;;;19.00;1.00;;;;;;5052144;28;20553;-90
2023/08/27 00:15:18;;;;;;;16.73;15.73;;;19.00;99.90;;;;;;5052750;28;20480;-91
2023/08/27 00:17:54;;;;;;;17.47;16.67;;;19.00;99.90;;;;;;5053548;28;20466;-92
2023/08/27 00:20:46;;;;;;;16.53;15.57;;;18.90;1.00;;;;;;5055676;28;20502;-91
2023/08/27 00:23:39;;;;;;;17.80;16.70;;;19.00;1.00;;;;;;5057229;28;20471;-92
2023/08/27 00:26:18;;;;;;;17.07;16.27;;;19.00;99.90;;;;;;5052969;28;20455;-89
2023/08/27 00:29:03;;;;;;;17.23;16.33;;;19.00;1.00;;;;;;5048673;28;20466;-91
2023/08/27 00:31:42;;;;;;;17.30;16.50;;;19.00;1.00;;;;;;5050936;28;20858;-91
2023/08/27 00:34:19;;;;;;;17.63;16.73;;;19.10;1.00;;;;;;5060659;28;20232;-93
2023/08/27 00:37:10;;;;;;;18.10;17.10;;;19.10;99.90;;;;;;5049343;28;20485;-91
2023/08/27 00:39:44;;;;;;;17.63;16.40;;;19.20;99.90;;;;;;5059555;28;21030;-92
2023/08/27 00:42:23;;;;;;;19.17;17.60;;;19.20;1.00;;;;;;5062893;28;20471;-92
2023/08/27 00:45:04;;;;;;;17.90;17.00;;;19.20;1.00;;;;;;5057454;28;20492;-93
2023/08/27 00:47:43;;;;;;;18.90;17.80;;;19.20;4.40;;;;;;5052206;28;20482;-93
2023/08/27 00:50:19;;;;;;;17.80;16.80;;;19.30;99.90;;;;;;5056317;28;20473;-91
2023/08/27 00:52:59;;;;;;;18.10;17.10;;;19.40;1.00;;;;;;5051857;28;20941;-92
2023/08/27 00:55:51;;;;;;;19.73;18.30;;;19.30;1.00;;;;;;5054792;28;20552;-90
2023/08/27 00:58:50;;;;;;;18.27;17.10;;;19.30;1.00;;;;;;5060149;28;20486;-90
2023/08/27 01:01:33;;;;;;;20.80;19.27;;;19.30;1.00;;;;;;5053245;28;20261;-91
2023/08/27 01:04:16;;;;;;;18.60;17.70;;;19.30;29.30;;;;;;5055043;28;20466;-90
2023/08/27 01:07:24;;;;;;;19.67;17.93;;;19.20;1.00;;;;;;5050188;28;20452;-90
2023/08/27 01:10:23;;;;;;;19.20;18.03;;;19.20;99.90;;;;;;5052420;28;20566;-89
2023/08/27 01:13:07;;;;;;;19.77;18.67;;;19.20;99.90;;;;;;5049747;28;20547;-91
2023/08/27 01:16:06;;;;;;;19.47;18.43;;;19.20;99.90;;;;;;5051421;28;20467;-92
2023/08/27 01:18:51;;;;;;;19.30;18.20;;;19.10;99.90;;;;;;5055148;28;20450;-91
2023/08/27 01:21:30;;;;;;;20.13;18.80;;;19.10;99.90;;;;;;5066916;28;20476;-92
2023/08/27 01:24:23;;;;;;;19.13;18.03;;;19.10;99.90;;;;;;5051894;28;20459;-91
2023/08/27 01:27:14;;;;;;;20.37;19.17;;;19.20;1.00;;;;;;5051224;28;20463;-92
2023/08/27 01:29:59;;;;;;;19.30;18.30;;;19.20;1.00;;;;;;5051790;28;20628;-91
2023/08/27 01:32:47;;;;;;;19.20;18.07;;;19.20;1.00;;;;;;5049053;28;20829;-91
2023/08/27 01:35:29;;;;;;;19.08;17.80;;;19.20;1.00;;;;;;5051022;28;21124;-91
2023/08/27 01:38:06;;;;;;;19.60;18.30;;;19.10;99.90;;;;;;5053499;28;20274;-91
2023/08/27 01:40:43;;;;;;;19.00;17.90;;;19.10;99.90;;;;;;5051609;28;20474;-90
2023/08/27 01:43:23;;;;;;;19.50;18.30;;;19.10;99.90;;;;;;5050976;28;20645;-90
2023/08/27 01:46:12;;;;;;;20.40;19.00;;;19.20;99.90;;;;;;5053953;28;20478;-90
2023/08/27 01:48:48;;;;;;;19.37;18.17;;;19.10;99.90;;;;;;5049487;28;20456;-88
2023/08/27 01:51:43;;;;;;;18.87;17.87;;;19.10;8.90;;;;;;5058670;28;20479;-89
2023/08/27 01:55:46;;;;;;;18.00;16.93;;;19.10;99.90;;;;;;5050018;28;20693;-89
2023/08/27 01:58:38;;;;;;;18.03;17.03;;;19.10;99.90;;;;;;5045120;28;20473;-90
2023/08/27 02:01:40;;;;;;;18.43;17.53;;;19.20;1.00;;;;;;5050710;28;20467;-90
2023/08/27 02:04:26;;;;;;;18.63;17.73;;;19.10;1.00;;;;;;5049476;28;20458;-89
2023/08/27 02:07:01;;;;;;;18.40;17.40;;;19.10;13.10;;;;;;5051756;28;20463;-91
2023/08/27 02:09:42;;;;;;;19.13;17.93;;;19.10;99.90;;;;;;5049313;28;20448;-91
2023/08/27 02:15:19;;;;;;;18.10;17.20;;;19.20;99.90;;;;;;5059087;28;20476;-91
2023/08/27 02:18:01;;;;;;;18.03;16.97;;;19.20;99.90;;;;;;5056238;28;20458;-91
2023/08/27 02:20:42;;;;;;;18.07;17.07;;;19.20;99.90;;;;;;5063381;28;20471;-91
2023/08/27 02:23:20;;;;;;;17.40;16.50;;;19.20;1.00;;;;;;5048902;28;20455;-90
2023/08/27 02:28:49;;;;;;;17.80;16.90;;;19.20;99.90;;;;;;5051986;28;20458;-90
2023/08/27 02:31:38;;;;;;;18.43;17.40;;;19.20;1.00;;;;;;5050853;28;20479;-91
2023/08/27 02:34:12;;;;;;;17.77;16.67;;;19.20;1.00;;;;;;5049006;28;20468;-91
2023/08/27 02:36:49;;;;;;;17.83;16.87;;;19.20;99.90;;;;;;5053502;28;20560;-89
2023/08/27 02:39:32;;;;;;;18.93;17.93;;;19.20;99.90;;;;;;5050952;28;20451;-89
2023/08/27 02:42:11;;;;;;;18.70;17.63;;;19.20;1.00;;;;;;5053263;28;20455;-89
2023/08/27 02:44:52;;;;;;;18.13;17.17;;;19.30;99.90;;;;;;5051921;28;20874;-92
2023/08/27 02:47:35;;;;;;;17.92;16.83;;;19.30;99.90;;;;;;5049843;28;20534;-91
2023/08/27 02:50:23;;;;;;;18.17;17.27;;;19.30;99.90;;;;;;5048640;28;20331;-89
2023/08/27 02:53:00;;;;;;;18.10;16.90;;;19.30;1.00;;;;;;5050632;28;20455;-90
2023/08/27 02:55:38;;;;;;;19.47;18.30;;;19.30;99.90;;;;;;5053080;28;20471;-91
2023/08/27 02:58:19;;;;;;;18.27;17.42;;;19.20;84.10;;;;;;5046585;28;20496;-90
2023/08/27 03:00:55;;;;;;;18.83;17.90;;;19.20;58.00;;;;;;5053345;28;20319;-90
2023/08/27 03:03:25;;;;;;;18.73;17.60;;;19.20;99.90;;;;;;5054337;28;20677;-90
2023/08/27 03:06:01;;;;;;;19.83;18.63;;;19.20;98.30;;;;;;5049146;28;20460;-90
2023/08/27 03:08:35;;;;;;;18.30;17.30;;;19.20;1.00;;;;;;5050584;28;20458;-90
2023/08/27 03:11:13;;;;;;;18.97;17.93;;;19.20;99.90;;;;;;5052458;28;20471;-90
2023/08/27 03:13:51;;;;;;;18.23;17.33;;;19.10;99.90;;;;;;5050727;28;20838;-89
2023/08/27 03:16:25;;;;;;;19.07;17.97;;;19.10;78.30;;;;;;5053430;28;20482;-90
2023/08/27 03:18:59;;;;;;;19.90;18.70;;;19.10;99.90;;;;;;5052984;28;20459;-90
2023/08/27 03:21:34;;;;;;;19.20;17.97;;;19.10;1.00;;;;;;5053865;28;20487;-90
2023/08/27 03:24:05;;;;;;;19.40;18.40;;;19.10;1.00;;;;;;5050193;28;20455;-89
2023/08/27 03:26:41;;;;;;;19.40;18.40;;;19.10;99.90;;;;;;5051832;28;20451;-88
2023/08/27 03:29:14;;;;;;;19.30;18.17;;;19.10;1.00;;;;;;5054931;28;20455;-90
2023/08/27 03:31:48;;;;;;;18.43;17.50;;;19.10;99.90;;;;;;5054609;28;20220;-89
2023/08/27 03:34:28;;;;;;;18.50;17.60;;;19.10;99.90;;;;;;5055323;28;20462;-90
2023/08/27 03:37:04;;;;;;;18.00;17.10;;;19.10;99.90;;;;;;5052840;28;20478;-90
2023/08/27 03:39:39;;;;;;;18.17;17.08;;;19.10;99.90;;;;;;5053943;28;20466;-92
2023/08/27 03:42:18;;;;;;;16.83;16.13;;;19.00;1.00;;;;;;5057205;28;20530;-91
2023/08/27 03:44:48;;;;;;;17.17;16.20;;;19.10;99.90;;;;;;5053044;28;20472;-91
2023/08/27 03:47:26;;;;;;;16.07;15.47;;;19.10;99.90;;;;;;5056354;28;20455;-91
2023/08/27 03:50:05;;;;;;;16.90;16.10;;;19.10;99.90;;;;;;5053718;28;21019;-90
2023/08/27 03:52:44;;;;;;;15.77;14.97;;;19.10;1.00;;;;;;5056959;28;20467;-91
2023/08/27 03:55:19;;;;;;;15.67;14.97;;;19.20;99.90;;;;;;5050852;28;20466;-89
2023/08/27 03:57:50;;;;;;;15.80;15.10;;;19.10;1.00;;;;;;5069399;28;20495;-92
2023/08/27 04:00:24;;;;;;;16.77;15.87;;;19.10;1.00;;;;;;5053332;28;20510;-91
2023/08/27 04:02:57;;;;;;;15.77;15.07;;;19.00;99.90;;;;;;5051587;28;21036;-89
2023/08/27 04:05:29;;;;;;;16.40;15.60;;;19.00;1.00;;;;;;5054596;28;20463;-90
2023/08/27 04:08:00;;;;;;;15.93;15.33;;;19.00;1.00;;;;;;5052170;28;20447;-90
2023/08/27 04:10:37;;;;;;;15.82;15.23;;;19.10;99.90;;;;;;5051660;28;20479;-87
2023/08/27 04:13:08;;;;;;;15.93;15.33;;;19.10;99.90;;;;;;5052756;28;20201;-89
2023/08/27 04:15:42;;;;;;;16.80;15.90;;;19.10;99.90;;;;;;5049051;28;20450;-89
2023/08/27 04:18:15;;;;;;;16.00;15.30;;;19.00;99.90;;;;;;5046188;28;20461;-92
2023/08/27 04:20:50;;;;;;;17.20;16.23;;;19.00;99.90;;;;;;5051667;28;20475;-93
2023/08/27 04:23:28;;;;;;;16.13;15.53;;;19.00;99.90;;;;;;5051296;28;20490;-92
2023/08/27 04:26:03;;;;;;;16.17;15.35;;;19.00;99.90;;;;;;5049920;28;20458;-92
2023/08/27 04:28:34;;;;;;;15.27;14.67;;;19.00;1.00;;;;;;5049630;28;20291;-89
2023/08/27 04:31:07;;;;;;;16.17;15.47;;;19.00;99.90;;;;;;5050730;28;20471;-86
2023/08/27 04:33:44;;;;;;;15.90;15.23;;;19.00;99.90;;;;;;5047980;28;20479;-89
2023/08/27 04:36:16;;;;;;;15.77;15.07;;;19.10;99.90;;;;;;5048956;28;20460;-89
2023/08/27 04:38:48;;;;;;;16.40;15.70;;;19.00;99.90;;;;;;5047276;28;20454;-90
2023/08/27 04:41:20;;;;;;;15.90;15.30;;;19.00;1.00;;;;;;5046148;28;20489;-90
2023/08/27 04:43:53;;;;;;;16.50;15.80;;;19.00;1.00;;;;;;5044442;28;20462;-89
2023/08/27 04:46:30;;;;;;;15.90;15.20;;;19.00;1.00;;;;;;5046564;28;20463;-89
2023/08/27 04:49:02;;;;;;;16.60;15.80;;;19.00;1.00;;;;;;5052799;28;20473;-89
2023/08/27 04:51:35;;;;;;;16.00;15.20;;;19.00;1.00;;;;;;5052324;28;20254;-91
2023/08/27 04:54:39;;;;;;;15.23;14.63;;;19.00;99.90;;;;;;5049758;28;20536;-89
2023/08/27 04:57:13;;;;;;;15.60;15.00;;;19.00;99.90;;;;;;5050484;28;20528;-89
2023/08/27 04:59:43;;;;;;;16.23;15.40;;;19.00;99.90;;;;;;5051459;28;20447;-90
2023/08/27 05:02:18;;;;;;;16.20;15.25;;;19.00;1.00;;;;;;5051163;28;20461;-89
2023/08/27 05:05:00;;;;;;;15.53;14.83;;;19.10;1.00;;;;;;5053880;28;20192;-90
2023/08/27 05:07:54;;;;;;;16.30;15.63;;;19.10;99.90;;;;;;5050688;28;20452;-89
2023/08/27 05:10:42;;;;;;;16.20;15.40;;;19.00;99.90;;;;;;5058588;28;20479;-89
2023/08/27 05:13:30;;;;;;;16.40;15.70;;;19.10;99.90;;;;;;5052414;28;20486;-87
2023/08/27 05:16:05;;;;;;;15.87;15.17;;;19.00;99.90;;;;;;5052646;28;20460;-89
2023/08/27 05:18:46;;;;;;;16.50;15.80;;;19.00;1.00;;;;;;5055862;28;20517;-90
2023/08/27 05:21:15;;;;;;;16.20;15.50;;;19.00;99.90;;;;;;5071105;28;20471;-91
2023/08/27 05:27:19;;;;;;;15.30;14.80;;;19.00;99.90;;;;;;5050830;28;20471;-89
2023/08/27 05:29:56;;;;;;;16.25;15.55;;;19.00;99.90;;;;;;5056657;28;20896;-89
2023/08/27 05:32:37;;;;;;;15.70;15.10;;;19.10;99.90;;;;;;5048760;28;20205;-87
2023/08/27 05:35:39;;;;;;;16.07;15.37;;;19.00;99.90;;;;;;5055430;28;20464;-87
2023/08/27 05:38:29;;;;;;;14.50;14.00;;;19.00;1.00;;;;;;5027253;28;20476;-88
2023/08/27 05:41:03;;;;;;;14.67;14.17;;;19.00;99.90;;;;;;5046207;28;21410;-87
2023/08/27 05:43:40;;;;;;;14.73;14.13;;;19.00;99.90;;;;;;5053108;28;20459;-87
2023/08/27 05:46:19;;;;;;;14.20;13.80;;;19.10;1.00;;;;;;5050864;28;21269;-89
2023/08/27 05:48:53;;;;;;;14.03;13.50;;;19.10;99.90;;;;;;5047359;28;20447;-87
2023/08/27 05:51:33;;;;;;;13.63;13.23;;;19.00;4.10;;;;;;5053934;28;20477;-86
2023/08/27 05:54:13;;;;;;;13.63;13.23;;;19.10;1.00;;;;;;5051399;28;20971;-89
2023/08/27 05:56:46;;;;;;;14.20;13.70;;;18.90;1.00;;;;;;5050288;28;20463;-88
2023/08/27 05:59:27;;;;;;;14.10;13.50;;;19.00;99.90;;;;;;5049203;28;20467;-88
2023/08/27 06:01:57;;;;;;;13.90;13.50;;;19.00;1.00;;;;;;5043163;28;20478;-88
2023/08/27 06:04:38;;;;;;;14.43;13.93;;;19.00;1.00;;;;;;5049255;28;20502;-90
2023/08/27 06:07:15;;;;;;;13.60;13.10;;;19.10;1.00;;;;;;5054294;28;20531;-90
2023/08/27 06:10:01;;;;;;;13.70;13.30;;;19.00;99.90;;;;;;5045842;28;20455;-88
2023/08/27 06:12:40;;;;;;;13.70;13.30;;;19.00;99.90;;;;;;5051718;28;20442;-89
2023/08/27 06:15:23;;;;;;;13.87;13.47;;;19.10;99.90;;;;;;5049766;28;20462;-89
2023/08/27 06:18:50;;;;;;;13.40;13.00;;;19.00;1.00;;;;;;5053898;28;20529;-89
2023/08/27 06:22:05;;;;;;;13.73;13.33;;;19.10;99.90;;;;;;5027485;22;20495;-90
2023/08/27 06:25:22;;;;;;;13.57;13.17;;;19.10;1.00;;;;;;4937809;28;20462;-90
2023/08/27 06:28:40;;;;;;;13.00;12.70;;;19.10;67.60;;;;;;4875753;28;20470;-87
2023/08/27 06:35:20;;;;;;;13.50;13.20;;;19.10;99.90;;;;;;5022796;28;20534;-90
2023/08/27 06:38:46;;;;;;;14.00;13.40;;;19.10;99.90;;;;;;5028408;28;20479;-89
2023/08/27 06:41:49;;;;;;;14.20;13.80;;;19.10;99.90;;;;;;5030146;28;20465;-88
2023/08/27 06:44:39;;;;;;;14.80;14.10;;;19.20;99.90;;;;;;5032368;28;20460;-89
2023/08/27 06:47:17;;;;;;;15.30;14.60;;;19.20;99.90;;;;;;5036281;28;20467;-87
2023/08/27 06:51:03;;;;;;;14.33;13.93;;;19.30;1.00;;;;;;5033187;28;20486;-88
2023/08/27 06:53:57;;;;;;;13.90;13.40;;;19.20;1.00;;;;;;5025815;28;20560;-89
2023/08/27 06:56:45;;;;;;;14.30;13.90;;;19.30;1.00;;;;;;5024659;28;20460;-87
2023/08/27 07:02:53;;;;;;;14.75;14.25;;;19.00;35.50;;;;;;5015625;28;20476;-87
2023/08/27 07:06:00;;;;;;;13.82;13.32;;;19.00;99.90;;;;;;5016189;28;20340;-88
2023/08/27 07:08:36;;;;;;;14.03;13.43;;;19.00;99.90;;;;;;5013661;28;20550;-89
2023/08/27 07:11:21;;;;;;;13.43;13.07;;;19.10;99.90;;;;;;5012802;28;20480;-90
2023/08/27 07:14:02;;;;;;;13.90;13.37;;;19.10;99.90;;;;;;5016633;28;20489;-89
2023/08/27 07:19:50;;;;;;;14.00;13.50;;;19.10;99.90;;;;;;5017891;28;20579;-88
2023/08/27 07:22:34;;;;;;;14.10;13.50;;;19.20;45.80;;;;;;5019234;28;20472;-87
2023/08/27 07:25:16;;;;;;;13.33;12.93;;;19.10;1.00;;;;;;5012007;28;20583;-89
2023/08/27 07:28:00;;;;;;;13.80;13.40;;;19.20;99.90;;;;;;5011942;28;20488;-89
2023/08/27 07:30:44;;;;;;;13.80;13.40;;;19.20;38.60;;;;;;5016270;28;20498;-88
2023/08/27 07:33:51;;;;;;;13.87;13.37;;;19.20;99.90;;;;;;5013383;28;20461;-80
2023/08/27 07:36:36;;;;;;;13.67;13.17;;;19.20;1.00;;;;;;5003473;28;20761;-76
2023/08/27 07:39:05;;;;;;;13.70;13.30;;;19.20;99.90;;;;;;5007742;28;21072;-76
2023/08/27 07:41:33;;;;;;;13.95;13.45;;;19.30;99.90;;;;;;5008710;28;20517;-74
2023/08/27 07:44:02;;;;;;;13.37;13.07;;;19.30;48.20;;;;;;5010711;28;20197;-73
2023/08/27 07:46:30;;;;;;;13.67;13.27;;;19.40;1.00;;;;;;5009515;28;20469;-76
2023/08/27 07:48:59;;;;;;;13.63;13.13;;;19.40;99.90;;;;;;5009697;28;20456;-75
2023/08/27 07:51:27;;;;;;;13.80;13.40;;;19.40;37.70;;;;;;5009887;28;20279;-76
2023/08/27 07:53:56;;;;;;;14.40;13.90;;;19.50;99.90;;;;;;5009957;28;20672;-76
2023/08/27 07:56:25;;;;;;;14.10;13.70;;;19.50;1.00;;;;;;5011521;28;20467;-75
2023/08/27 07:58:53;;;;;;;13.60;12.97;;;19.60;7.90;;;;;;5012134;28;20492;-74
2023/08/27 08:01:21;;;;;;;13.03;12.73;;;19.70;18.70;;;;;;5014545;28;20484;-73
2023/08/27 08:03:50;;;;;;;13.70;13.30;;;19.60;1.00;;;;;;5018329;28;20481;-75
2023/08/27 08:06:18;;;;;;;12.77;12.47;;;19.60;99.90;;;;;;5018793;28;20552;-74
2023/08/27 08:08:46;;;;;;;13.23;12.83;;;19.60;16.30;;;;;;5019561;28;20444;-76
2023/08/27 08:11:15;;;;;;;13.87;13.37;;;19.60;99.90;;;;;;5014932;28;20517;-75
2023/08/27 08:13:46;;;;;;;13.10;12.80;;;19.50;99.90;;;;;;5014875;28;20442;-75
2023/08/27 08:16:14;;;;;;;13.27;12.95;;;19.50;56.10;;;;;;5015510;28;20461;-74
2023/08/27 08:18:42;;;;;;;14.00;13.60;;;19.60;99.90;;;;;;5017326;28;20688;-76
2023/08/27 08:21:10;;;;;;;13.07;12.77;;;19.60;99.90;;;;;;5016309;28;20472;-75
2023/08/27 08:23:38;;;;;;;12.90;12.60;;;19.60;71.70;;;;;;5013830;28;20460;-75
2023/08/27 08:26:06;;;;;;;13.50;13.20;;;19.50;99.90;;;;;;5016421;28;20909;-76
2023/08/27 08:28:34;;;;;;;13.40;13.10;;;19.50;99.90;;;;;;5018369;28;20453;-73
2023/08/27 08:31:04;;;;;;;13.67;13.27;;;19.60;99.90;;;;;;5014669;28;21024;-74
2023/08/27 08:33:32;;;;;;;13.50;13.10;;;19.60;1.00;;;;;;5014701;28;20456;-74
2023/08/27 08:36:00;;;;;;;14.27;13.73;;;19.60;26.60;;;;;;5017746;28;20453;-73
2023/08/27 08:38:28;;;;;;;13.70;13.30;;;19.70;1.00;;;;;;5016110;28;20226;-74
2023/08/27 08:40:59;;;;;;;13.70;13.33;;;19.70;99.90;;;;;;5013420;28;20501;-75
2023/08/27 08:43:47;;;;;;;13.10;12.80;;;19.80;99.90;;;;;;5018230;28;20551;-86
2023/08/27 08:46:34;;;;;;;13.27;12.90;;;19.70;1.00;;;;;;5025572;28;20457;-84
2023/08/27 08:49:05;;;;;;;13.23;12.73;;;19.80;1.00;;;;;;5022289;28;20457;-84
2023/08/27 08:51:48;;;;;;;13.40;12.80;;;19.80;99.90;;;;;;5013587;28;20484;-84
2023/08/27 08:54:24;;;;;;;13.27;12.87;;;19.70;70.30;;;;;;5020941;28;20853;-83
2023/08/27 08:57:06;;;;;;;12.93;12.63;;;19.70;99.90;;;;;;5017980;28;20456;-82
2023/08/27 08:59:43;;;;;;;13.40;13.00;;;19.70;99.90;;;;;;5018547;28;20216;-85
2023/08/27 09:02:25;;;;;;;12.97;12.67;;;19.70;1.00;;;;;;5005925;28;20457;-84
2023/08/27 09:05:10;;;;;;;14.10;13.50;;;19.80;1.00;;;;;;5035012;28;20877;-83
2023/08/27 09:07:48;;;;;;;13.10;12.80;;;19.80;1.00;;;;;;5021330;28;20202;-84
2023/08/27 09:10:31;;;;;;;13.40;13.03;;;19.80;1.00;;;;;;5015355;28;20563;-87
2023/08/27 09:13:10;;;;;;;13.60;13.20;;;19.80;1.00;;;;;;5013803;28;20465;-86
2023/08/27 09:15:43;;;;;;;13.50;13.10;;;19.70;99.90;;;;;;5010614;28;20618;-83
2023/08/27 09:18:26;;;;;;;13.67;13.27;;;19.70;99.90;;;;;;5025805;28;20481;-86
2023/08/27 09:21:06;;;;;;;13.20;12.90;;;19.70;99.90;;;;;;5028343;28;20469;-85
2023/08/27 09:23:38;;;;;;;13.40;13.00;;;19.80;99.90;;;;;;5010052;28;20453;-84
2023/08/27 09:26:21;;;;;;;13.70;13.17;;;19.80;99.90;;;;;;5001661;28;20915;-86
2023/08/27 09:28:54;;;;;;;13.70;13.30;;;19.80;99.90;;;;;;5008756;28;20468;-84
2023/08/27 09:31:46;;;;;;;13.67;13.27;;;19.90;99.90;;;;;;5013997;28;20697;-84
2023/08/27 09:34:23;;;;;;;13.30;13.00;;;20.10;99.90;;;;;;5010447;28;20543;-83
2023/08/27 09:37:02;;;;;;;13.37;13.07;;;20.10;99.90;;;;;;5011909;28;20471;-80
2023/08/27 09:39:37;;;;;;;13.47;13.07;;;20.10;99.90;;;;;;5016743;28;20472;-85
2023/08/27 09:42:14;;;;;;;13.65;13.30;;;20.10;1.00;;;;;;5012952;28;20468;-84
2023/08/27 09:44:56;;;;;;;13.97;13.57;;;20.20;1.00;;;;;;5010942;28;20686;-80
2023/08/27 09:47:36;;;;;;;13.73;13.27;;;20.20;99.90;;;;;;5011373;28;20469;-84
2023/08/27 09:50:20;;;;;;;13.03;12.70;;;20.30;99.90;;;;;;5009755;28;20556;-84
2023/08/27 09:52:55;;;;;;;13.33;12.93;;;20.50;99.90;;;;;;5014162;28;20962;-85
2023/08/27 09:55:35;;;;;;;13.40;12.90;;;20.50;99.90;;;;;;5007784;28;20492;-85
2023/08/27 09:58:16;;;;;;;13.17;12.77;;;20.60;1.00;;;;;;5012337;28;20609;-84
2023/08/27 10:00:53;;;;;;;13.00;12.60;;;20.50;1.00;;;;;;5008240;28;21056;-85
2023/08/27 10:03:39;;;;;;;12.63;12.33;;;20.50;1.00;;;;;;5011416;28;20456;-84
2023/08/27 10:06:14;;;;;;;13.32;12.95;;;20.50;1.00;;;;;;5009576;28;20492;-84
2023/08/27 10:09:00;;;;;;;13.30;13.00;;;20.50;1.00;;;;;;5007541;28;20213;-84
2023/08/27 10:11:41;;;;;;;13.27;12.87;;;20.60;1.00;;;;;;5013383;28;20489;-85
2023/08/27 10:14:23;;;;;;;13.63;13.13;;;20.50;99.90;;;;;;5016284;28;20551;-86
2023/08/27 10:16:52;;;;;;;13.90;13.43;;;20.60;1.00;;;;;;5010079;28;20218;-84
2023/08/27 10:19:31;;;;;;;13.77;13.10;;;20.60;99.90;;;;;;5008158;28;20486;-85
2023/08/27 10:22:14;;;;;;;13.13;12.70;;;20.70;99.90;;;;;;5010484;28;20469;-85
2023/08/27 10:24:50;;;;;;;14.03;13.33;;;20.80;99.90;;;;;;5005563;28;20472;-86
2023/08/27 10:27:31;;;;;;;13.00;12.50;;;20.80;99.90;;;;;;5005653;28;20461;-87
2023/08/27 10:30:12;;;;;;;12.95;12.65;;;20.90;99.90;;;;;;5009098;28;20749;-85
2023/08/27 10:32:50;;;;;;;13.40;13.00;;;20.90;99.90;;;;;;5006106;28;20282;-84
2023/08/27 10:35:35;;;;;;;14.13;13.60;;;20.90;95.60;;;;;;5011694;28;20573;-85
2023/08/27 10:38:17;;;;;;;12.93;12.63;;;20.80;99.90;;;;;;5008335;28;20493;-86
2023/08/27 10:40:55;;;;;;;13.17;12.77;;;20.80;99.90;;;;;;5011375;28;20482;-85
2023/08/27 10:43:39;;;;;;;13.17;12.73;;;20.90;99.90;;;;;;5007353;28;20464;-84
2023/08/27 10:46:20;;;;;;;13.27;12.87;;;20.90;99.90;;;;;;5011681;28;20485;-83
2023/08/27 10:48:57;;;;;;;13.10;12.80;;;20.90;99.90;;;;;;5011460;28;20456;-85
2023/08/27 10:51:39;;;;;;;13.13;12.73;;;20.90;99.90;;;;;;5011516;28;20210;-86
2023/08/27 10:54:26;;;;;;;13.33;12.90;;;21.00;84.50;;;;;;5007757;28;20974;-83
2023/08/27 10:57:33;;;;;;;12.40;12.10;;;21.00;90.50;;;;;;5008485;28;20510;-84
2023/08/27 11:00:27;;;;;;;13.03;12.63;;;21.00;9.20;;;;;;5007218;28;20973;-84
2023/08/27 11:03:20;;;;;;;13.00;12.60;;;20.90;8.60;;;;;;5013829;28;20463;-85
2023/08/27 11:06:21;;;;;;;13.00;12.70;;;20.80;1.00;;;;;;5018476;28;20544;-86
2023/08/27 11:09:04;;;;;;;13.77;13.27;;;20.90;1.00;;;;;;5010179;28;20195;-84
2023/08/27 11:11:44;;;;;;;13.80;13.30;;;20.90;92.50;;;;;;5005418;28;20503;-82
2023/08/27 11:14:24;;;;;;;14.10;13.60;;;20.90;15.70;;;;;;5008685;28;20460;-84
2023/08/27 11:17:08;;;;;;;14.00;13.60;;;20.90;20.40;;;;;;5014811;28;20490;-85
2023/08/27 11:20:01;;;;;;;;;;;;;;;;;;;;;
2023/08/27 11:22:38;;;;;;;13.90;13.50;;;20.80;1.00;;;;;;5008720;28;20453;-86
2023/08/27 11:25:15;;;;;;;13.90;13.50;;;20.70;1.00;;;;;;5007352;28;20939;-85
2023/08/27 11:27:59;;;;;;;13.87;13.47;;;20.80;2.40;;;;;;5002223;28;20466;-85
2023/08/27 11:30:40;;;;;;;14.00;13.53;;;20.90;1.00;;;;;;5008452;28;20910;-84
2023/08/27 11:33:22;;;;;;;14.47;13.97;;;21.00;1.00;;;;;;5006479;28;20483;-84
2023/08/27 11:36:20;;;;;;;13.83;13.43;;;21.10;1.00;;;;;;5013662;28;20461;-85
2023/08/27 11:38:52;;;;;;;15.00;14.50;;;21.00;1.00;;;;;;5022950;28;20477;-84
2023/08/27 11:41:43;;;;;;;14.30;13.70;;;21.10;1.00;;;;;;5020897;28;20565;-84
2023/08/27 11:44:13;;;;;;;13.90;13.60;;;21.20;1.00;;;;;;5015247;28;20468;-84
2023/08/27 11:47:04;;;;;;;13.10;12.80;;;21.30;1.00;;;;;;5010459;28;20482;-84
2023/08/27 11:49:39;;;;;;;13.53;13.23;;;21.30;1.00;;;;;;5012927;28;20514;-84
2023/08/27 11:52:12;;;;;;;14.25;13.85;;;21.30;1.00;;;;;;5011371;28;20558;-84
2023/08/27 11:54:46;;;;;;;13.60;13.20;;;21.40;1.00;;;;;;5013130;28;20461;-83
2023/08/27 11:57:15;;;;;;;14.10;13.70;;;21.40;1.00;;;;;;5008243;28;22574;-83
2023/08/27 12:00:03;;;;;;;13.90;13.40;;;21.40;1.00;;;;;;5012520;28;20456;-84
2023/08/27 12:02:36;;;;;;;14.90;14.40;;;21.40;1.00;;;;;;5007664;28;20556;-85
2023/08/27 12:05:17;;;;;;;13.77;13.40;;;21.40;1.00;;;;;;5015499;28;20485;-84
2023/08/27 12:07:51;;;;;;;13.87;13.57;;;21.40;99.90;;;;;;5016873;28;20489;-84
2023/08/27 12:10:28;;;;;;;14.33;13.83;;;21.30;99.90;;;;;;5018143;28;20890;-84
2023/08/27 12:13:09;;;;;;;13.93;13.57;;;21.30;99.90;;;;;;5018015;28;20457;-82
2023/08/27 12:15:57;;;;;;;14.80;14.10;;;21.20;99.90;;;;;;5023299;28;20464;-84
2023/08/27 12:18:48;;;;;;;13.73;13.30;;;21.20;99.90;;;;;;5018673;28;20489;-85
2023/08/27 12:21:36;;;;;;;14.47;14.07;;;21.20;99.90;;;;;;5041689;28;20504;-85
2023/08/27 12:24:11;;;;;;;13.90;13.30;;;21.30;99.90;;;;;;5027672;28;20457;-83
2023/08/27 12:26:50;;;;;;;13.70;13.30;;;21.30;99.90;;;;;;5015943;28;20467;-85
2023/08/27 12:29:28;;;;;;;13.90;13.60;;;21.40;99.90;;;;;;5020762;28;20466;-87
2023/08/27 12:32:16;;;;;;;15.10;14.60;;;21.40;99.90;;;;;;5022483;28;21017;-85
2023/08/27 12:35:02;;;;;;;14.57;14.17;;;21.40;99.90;;;;;;5021069;28;20456;-85
2023/08/27 12:37:36;;;;;;;14.10;13.70;;;21.40;99.90;;;;;;5021877;28;20976;-82
2023/08/27 12:40:21;;;;;;;13.70;13.40;;;21.40;99.90;;;;;;5012423;28;20755;-82
2023/08/27 12:42:54;;;;;;;14.27;13.70;;;21.30;99.90;;;;;;5017695;28;20808;-84
2023/08/27 12:45:26;;;;;;;14.10;13.70;;;21.40;99.90;;;;;;5015890;28;20202;-84
2023/08/27 12:48:07;;;;;;;14.40;14.00;;;21.40;99.90;;;;;;5015555;28;20246;-85
2023/08/27 12:50:44;;;;;;;14.70;14.30;;;21.30;99.90;;;;;;5018838;28;20487;-84
2023/08/27 12:53:24;;;;;;;14.80;14.40;;;21.20;99.90;;;;;;5018782;28;21023;-84
2023/08/27 12:55:58;;;;;;;14.32;13.82;;;21.20;99.90;;;;;;5016864;28;20457;-85
2023/08/27 12:58:32;;;;;;;14.37;13.97;;;21.20;99.90;;;;;;5017908;28;20764;-83
2023/08/27 13:01:05;;;;;;;14.33;13.70;;;21.20;99.90;;;;;;5017479;28;20570;-84
2023/08/27 13:03:35;;;;;;;14.10;13.60;;;21.30;99.90;;;;;;5026026;28;20460;-85
2023/08/27 13:06:12;;;;;;;14.98;14.38;;;21.30;99.90;;;;;;5017634;28;20461;-83
2023/08/27 13:08:41;;;;;;;14.40;14.10;;;21.20;99.90;;;;;;5016061;28;20657;-84
2023/08/27 13:11:12;;;;;;;14.67;14.10;;;21.30;99.90;;;;;;5016545;28;20507;-84
2023/08/27 13:13:44;;;;;;;15.00;14.50;;;21.40;99.90;;;;;;5014912;28;20526;-84
2023/08/27 13:16:17;;;;;;;14.57;14.10;;;21.30;99.90;;;;;;5021769;28;20479;-84
2023/08/27 13:19:01;;;;;;;14.30;13.90;;;21.40;99.90;;;;;;5015859;28;20463;-82
2023/08/27 13:21:41;;;;;;;15.50;15.00;;;21.40;1.00;;;;;;5020093;28;20573;-84
2023/08/27 13:24:16;;;;;;;15.20;14.70;;;21.40;1.00;;;;;;5016885;28;20548;-83
2023/08/27 13:26:54;;;;;;;15.55;15.15;;;21.30;1.00;;;;;;5015848;28;20567;-83
2023/08/27 13:29:28;;;;;;;14.82;14.35;;;21.40;1.00;;;;;;5019358;28;20225;-84
2023/08/27 13:32:01;;;;;;;15.13;14.73;;;21.40;1.00;;;;;;5019708;28;20528;-81
2023/08/27 13:34:40;;;;;;;15.50;14.80;;;21.40;99.90;;;;;;5021090;28;20471;-80
2023/08/27 13:37:16;;;;;;;15.27;14.77;;;21.30;99.90;;;;;;5022242;28;20556;-82
2023/08/27 13:39:55;;;;;;;14.77;14.30;;;21.40;1.00;;;;;;5036943;28;20506;-82
2023/08/27 13:42:26;;;;;;;14.87;14.47;;;21.30;1.00;;;;;;5021522;28;20473;-83
2023/08/27 13:45:11;;;;;;;14.70;14.30;;;21.40;1.00;;;;;;5021462;28;20830;-85
2023/08/27 13:47:45;;;;;;;15.50;14.80;;;21.40;99.90;;;;;;5022060;28;20459;-84
2023/08/27 13:50:22;;;;;;;14.87;14.47;;;21.40;99.90;;;;;;5018276;28;20483;-83
2023/08/27 13:52:57;;;;;;;14.43;14.03;;;21.40;99.90;;;;;;5021333;28;20942;-82
2023/08/27 13:55:34;;;;;;;15.00;14.50;;;21.30;99.90;;;;;;5023918;28;21004;-84
2023/08/27 13:58:10;;;;;;;14.77;14.37;;;21.30;99.90;;;;;;5035242;28;21331;-84